createdAt,value
2023-11-30T00:01:03.278Z,5.87
2023-11-30T00:03:57.037Z,7.07
2023-11-30T00:06:48.433Z,6.87
2023-11-30T00:09:37.477Z,7.20
2023-11-30T00:12:24.302Z,7.03
2023-11-30T00:15:12.361Z,5.33
2023-11-30T00:18:01.817Z,7.47
2023-11-30T00:20:52.511Z,8.50
2023-11-30T00:23:39.569Z,7.73
2023-11-30T00:26:30.830Z,8.00
2023-11-30T00:29:27.467Z,7.97
2023-11-30T00:32:17.510Z,8.90
2023-11-30T00:35:10.018Z,6.50
2023-11-30T00:38:02.922Z,8.40
2023-11-30T00:40:51.224Z,6.60
2023-11-30T00:43:38.073Z,8.83
2023-11-30T00:46:25.695Z,8.97
2023-11-30T00:49:20.349Z,6.27
2023-11-30T00:52:09.785Z,6.03
2023-11-30T00:54:58.448Z,6.73
2023-11-30T00:57:49.634Z,6.90
2023-11-30T01:00:36.405Z,10.43
2023-11-30T01:03:27.636Z,5.93
2023-11-30T01:06:19.475Z,6.00
2023-11-30T01:09:09.431Z,6.40
2023-11-30T01:12:00.207Z,5.70
2023-11-30T01:14:50.172Z,7.63
2023-11-30T01:17:39.240Z,6.40
2023-11-30T01:20:26.412Z,5.60
2023-11-30T01:23:14.267Z,5.10
2023-11-30T01:26:27.358Z,4.53
2023-11-30T01:29:20.112Z,4.97
2023-11-30T01:32:07.341Z,6.70
2023-11-30T01:34:54.373Z,6.57
2023-11-30T01:37:41.348Z,6.37
2023-11-30T01:40:29.379Z,7.87
2023-11-30T01:43:20.945Z,6.40
2023-11-30T01:46:12.094Z,7.43
2023-11-30T01:49:01.380Z,5.30
2023-11-30T01:51:53.010Z,6.07
2023-11-30T01:54:42.838Z,7.00
2023-11-30T01:57:34.769Z,7.40
2023-11-30T02:00:29.708Z,8.07
2023-11-30T02:03:25.304Z,9.50
2023-11-30T02:06:18.630Z,10.57
2023-11-30T02:09:05.475Z,5.27
2023-11-30T02:11:57.471Z,6.17
2023-11-30T02:14:44.671Z,9.40
2023-11-30T02:17:33.803Z,7.90
2023-11-30T02:20:33.211Z,8.47
2023-11-30T02:23:22.845Z,8.03
2023-11-30T02:26:17.479Z,9.20
2023-11-30T02:29:04.523Z,6.80
2023-11-30T02:32:01.208Z,13.93
2023-11-30T02:34:50.520Z,11.23
2023-11-30T02:37:37.326Z,10.17
2023-11-30T02:40:30.613Z,8.57
2023-11-30T02:43:17.322Z,8.93
2023-11-30T02:46:08.929Z,8.07
2023-11-30T02:48:58.417Z,9.37
2023-11-30T02:51:47.869Z,6.83
2023-11-30T02:54:34.597Z,7.80
2023-11-30T02:57:28.022Z,8.57
2023-11-30T03:00:41.080Z,7.60
2023-11-30T03:03:27.893Z,8.03
2023-11-30T03:06:19.747Z,9.77
2023-11-30T03:09:07.193Z,9.07
2023-11-30T03:11:54.146Z,11.83
2023-11-30T03:14:48.096Z,8.33
2023-11-30T03:17:35.340Z,7.70
2023-11-30T03:20:24.511Z,11.90
2023-11-30T03:23:11.337Z,9.97
2023-11-30T03:25:59.331Z,8.63
2023-11-30T03:28:53.917Z,8.97
2023-11-30T03:31:42.446Z,9.03
2023-11-30T03:34:55.464Z,9.07
2023-11-30T03:37:45.212Z,8.13
2023-11-30T03:40:36.627Z,7.57
2023-11-30T03:43:23.540Z,10.10
2023-11-30T03:46:19.033Z,12.10
2023-11-30T03:49:10.289Z,9.50
2023-11-30T03:52:01.437Z,10.93
2023-11-30T03:54:50.603Z,10.87
2023-11-30T03:57:37.272Z,9.20
2023-11-30T04:00:24.502Z,10.43
2023-11-30T04:03:12.549Z,8.53
2023-11-30T04:06:05.937Z,10.77
2023-11-30T04:08:54.230Z,11.90
2023-11-30T04:11:42.288Z,7.73
2023-11-30T04:14:31.906Z,7.43
2023-11-30T04:17:21.618Z,9.87
2023-11-30T04:20:14.948Z,8.60
2023-11-30T04:23:05.866Z,11.70
2023-11-30T04:25:56.804Z,13.73
2023-11-30T04:28:45.557Z,10.20
2023-11-30T04:31:34.655Z,8.53
2023-11-30T04:34:47.281Z,8.90
2023-11-30T04:37:34.959Z,12.67
2023-11-30T04:40:25.071Z,10.03
2023-11-30T04:43:14.197Z,10.00
2023-11-30T04:46:09.082Z,8.93
2023-11-30T04:49:02.469Z,11.83
2023-11-30T04:51:49.224Z,8.77
2023-11-30T04:54:39.500Z,10.93
2023-11-30T04:57:27.813Z,8.50
2023-11-30T05:00:16.853Z,12.60
2023-11-30T05:03:04.730Z,10.23
2023-11-30T05:05:51.745Z,8.03
2023-11-30T05:08:39.379Z,10.90
2023-11-30T05:11:32.502Z,11.10
2023-11-30T05:14:21.201Z,9.43
2023-11-30T05:17:10.642Z,9.17
2023-11-30T05:19:58.615Z,7.63
2023-11-30T05:22:47.839Z,11.27
2023-11-30T05:25:35.343Z,7.97
2023-11-30T05:28:24.814Z,11.30
2023-11-30T05:31:18.072Z,9.07
2023-11-30T05:34:07.170Z,12.47
2023-11-30T05:36:56.758Z,12.80
2023-11-30T05:40:10.607Z,12.43
2023-11-30T05:42:59.417Z,8.37
2023-11-30T05:45:48.808Z,15.30
2023-11-30T05:48:38.931Z,14.70
2023-11-30T05:51:28.891Z,9.83
2023-11-30T05:54:20.412Z,10.27
2023-11-30T05:57:07.547Z,12.57
2023-11-30T05:59:56.712Z,11.40
2023-11-30T06:02:46.029Z,12.97
2023-11-30T06:05:34.764Z,15.07
2023-11-30T06:08:21.802Z,15.43
2023-11-30T06:11:09.972Z,13.37
2023-11-30T06:14:01.608Z,12.03
2023-11-30T06:16:51.479Z,9.90
2023-11-30T06:19:40.460Z,11.63
2023-11-30T06:22:31.126Z,11.43
2023-11-30T06:25:20.715Z,14.77
2023-11-30T06:28:07.331Z,11.00
2023-11-30T06:30:55.765Z,10.90
2023-11-30T06:33:43.665Z,9.53
2023-11-30T06:36:32.836Z,12.70
2023-11-30T06:39:33.535Z,10.10
2023-11-30T06:42:20.630Z,11.70
2023-11-30T06:45:11.465Z,9.67
2023-11-30T06:48:01.672Z,10.30
2023-11-30T06:50:48.692Z,11.50
2023-11-30T06:53:40.166Z,11.30
2023-11-30T06:56:28.959Z,12.27
2023-11-30T06:59:15.854Z,18.50
2023-11-30T07:02:05.380Z,10.77
2023-11-30T07:04:54.592Z,11.50
2023-11-30T07:07:41.667Z,12.23
2023-11-30T07:10:30.745Z,13.37
2023-11-30T07:13:19.119Z,14.50
2023-11-30T07:16:11.766Z,9.83
2023-11-30T07:18:58.853Z,14.07
2023-11-30T07:21:49.096Z,13.37
2023-11-30T07:24:36.152Z,18.23
2023-11-30T07:27:30.958Z,17.50
2023-11-30T07:30:20.124Z,22.43
2023-11-30T07:33:23.605Z,27.53
2023-11-30T07:36:14.631Z,30.37
2023-11-30T07:39:03.550Z,20.73
2023-11-30T07:41:54.290Z,11.53
2023-11-30T07:44:43.359Z,14.30
2023-11-30T07:47:31.367Z,13.60
2023-11-30T07:50:18.325Z,11.57
2023-11-30T07:53:11.284Z,13.40
2023-11-30T07:56:02.860Z,10.60
2023-11-30T07:58:52.129Z,12.87
2023-11-30T08:01:43.298Z,34.03
2023-11-30T08:04:34.710Z,20.90
2023-11-30T08:07:28.313Z,26.47
2023-11-30T08:10:15.477Z,35.37
2023-11-30T08:13:02.591Z,22.93
2023-11-30T08:15:51.600Z,26.70
2023-11-30T08:18:42.616Z,26.27
2023-11-30T08:21:31.900Z,23.97
2023-11-30T08:24:18.587Z,29.30
2023-11-30T08:27:09.795Z,18.60
2023-11-30T08:30:08.736Z,31.83
2023-11-30T08:32:56.618Z,29.63
2023-11-30T08:35:51.591Z,35.53
2023-11-30T08:38:45.051Z,17.53
2023-11-30T08:41:32.532Z,19.73
2023-11-30T08:44:24.116Z,14.50
2023-11-30T08:47:13.187Z,18.87
2023-11-30T08:50:00.378Z,15.33
2023-11-30T08:52:47.482Z,23.87
2023-11-30T08:55:36.934Z,17.13
2023-11-30T08:58:25.494Z,20.63
2023-11-30T09:01:15.036Z,22.00
2023-11-30T09:04:06.379Z,23.73
2023-11-30T09:06:54.008Z,21.60
2023-11-30T09:09:47.575Z,24.03
2023-11-30T09:12:40.787Z,17.70
2023-11-30T09:15:32.519Z,25.83
2023-11-30T09:18:20.047Z,17.90
2023-11-30T09:21:08.749Z,24.20
2023-11-30T09:23:57.396Z,20.37
2023-11-30T09:26:46.494Z,23.03
2023-11-30T09:29:39.474Z,20.80
2023-11-30T09:32:28.516Z,23.80
2023-11-30T09:35:15.940Z,17.73
2023-11-30T09:38:02.730Z,22.17
2023-11-30T09:40:50.547Z,21.03
2023-11-30T09:43:38.451Z,20.63
2023-11-30T09:46:31.369Z,22.97
2023-11-30T09:49:25.711Z,23.23
2023-11-30T09:52:15.080Z,19.23
2023-11-30T09:55:05.131Z,19.90
2023-11-30T09:57:54.179Z,20.93
2023-11-30T10:00:43.725Z,25.47
2023-11-30T10:03:43.748Z,21.23
2023-11-30T10:06:34.006Z,19.10
2023-11-30T10:09:23.079Z,22.47
2023-11-30T10:12:12.549Z,29.07
2023-11-30T10:15:03.232Z,23.33
2023-11-30T10:17:53.231Z,25.17
2023-11-30T10:20:45.206Z,25.83
2023-11-30T10:23:32.151Z,24.07
2023-11-30T10:26:20.080Z,20.47
2023-11-30T10:29:10.564Z,24.23
2023-11-30T10:32:01.635Z,25.57
2023-11-30T10:34:53.568Z,20.30
2023-11-30T10:37:48.287Z,21.83
2023-11-30T10:40:37.241Z,20.40
2023-11-30T10:43:30.209Z,19.93
2023-11-30T10:46:20.311Z,20.53
2023-11-30T10:49:11.390Z,25.63
2023-11-30T10:52:05.318Z,20.03
2023-11-30T10:55:22.894Z,21.67
2023-11-30T10:58:13.229Z,20.10
2023-11-30T11:01:28.590Z,17.03
2023-11-30T11:04:19.656Z,18.50
2023-11-30T11:07:17.972Z,20.77
2023-11-30T11:10:15.323Z,20.03
2023-11-30T11:13:04.184Z,21.53
2023-11-30T11:16:02.204Z,22.43
2023-11-30T11:18:51.590Z,21.17
2023-11-30T11:21:42.849Z,27.93
2023-11-30T11:24:33.851Z,31.53
2023-11-30T11:27:40.457Z,21.83
2023-11-30T11:30:30.012Z,18.70
2023-11-30T11:33:22.282Z,22.80
2023-11-30T11:36:14.981Z,19.87
2023-11-30T11:39:03.992Z,17.90
2023-11-30T11:41:51.636Z,25.30
2023-11-30T11:44:45.975Z,25.43
2023-11-30T11:47:41.344Z,20.27
2023-11-30T11:50:28.643Z,23.03
2023-11-30T11:53:17.625Z,19.63
2023-11-30T11:56:12.013Z,18.87
2023-11-30T11:59:08.337Z,19.70
2023-11-30T12:01:59.172Z,22.03
2023-11-30T12:04:47.854Z,20.07
2023-11-30T12:07:49.013Z,16.80
2023-11-30T12:10:41.500Z,18.27
2023-11-30T12:13:29.309Z,21.30
2023-11-30T12:16:18.911Z,19.27
2023-11-30T12:19:34.395Z,20.23
2023-11-30T12:22:32.867Z,23.33
2023-11-30T12:25:22.586Z,22.83
2023-11-30T12:28:13.669Z,23.00
2023-11-30T12:31:00.614Z,18.23
2023-11-30T12:33:49.342Z,24.57
2023-11-30T12:36:42.353Z,23.70
2023-11-30T12:39:35.990Z,22.27
2023-11-30T12:42:25.529Z,23.93
2023-11-30T12:45:13.923Z,20.73
2023-11-30T12:48:03.493Z,20.07
2023-11-30T12:50:54.711Z,19.03
2023-11-30T12:53:41.697Z,26.73
2023-11-30T12:56:34.603Z,23.67
2023-11-30T12:59:21.967Z,19.10
2023-11-30T13:02:11.166Z,17.90
2023-11-30T13:05:00.065Z,18.17
2023-11-30T13:07:53.809Z,20.97
2023-11-30T13:10:44.717Z,20.10
2023-11-30T13:13:41.931Z,32.33
2023-11-30T13:16:32.679Z,32.03
2023-11-30T13:19:24.810Z,24.60
2023-11-30T13:22:15.079Z,29.53
2023-11-30T13:25:07.721Z,27.80
2023-11-30T13:27:58.927Z,23.03
2023-11-30T13:30:52.045Z,26.10
2023-11-30T13:33:39.732Z,22.83
2023-11-30T13:36:28.967Z,18.93
2023-11-30T13:39:16.748Z,21.50
2023-11-30T13:42:08.531Z,25.57
2023-11-30T13:45:01.060Z,44.87
2023-11-30T13:47:51.757Z,63.83
2023-11-30T13:50:49.444Z,36.23
2023-11-30T13:53:45.276Z,26.50
2023-11-30T13:56:32.707Z,20.37
2023-11-30T13:59:20.191Z,22.83
2023-11-30T14:02:08.725Z,21.93
2023-11-30T14:04:58.089Z,19.23
2023-11-30T14:07:47.553Z,21.23
2023-11-30T14:10:39.116Z,24.30
2023-11-30T14:16:29.646Z,22.97
2023-11-30T14:19:17.969Z,18.60
2023-11-30T14:22:11.880Z,19.93
2023-11-30T14:25:00.994Z,18.73
2023-11-30T14:27:50.085Z,26.43
2023-11-30T14:30:41.230Z,33.57
2023-11-30T14:33:29.323Z,20.23
2023-11-30T14:36:19.042Z,21.73
2023-11-30T14:39:12.382Z,17.33
2023-11-30T14:41:59.746Z,19.77
2023-11-30T14:44:49.074Z,23.43
2023-11-30T14:48:29.949Z,21.27
2023-11-30T14:51:19.164Z,28.83
2023-11-30T14:54:35.476Z,32.30
2023-11-30T14:57:22.724Z,30.73
2023-11-30T15:00:20.697Z,33.23
2023-11-30T15:03:10.779Z,20.43
2023-11-30T15:06:01.384Z,24.90
2023-11-30T15:08:54.113Z,25.13
2023-11-30T15:11:44.690Z,24.60
2023-11-30T15:14:33.978Z,20.27
2023-11-30T15:17:23.153Z,22.53
2023-11-30T15:20:35.560Z,17.77
2023-11-30T15:23:22.265Z,11.17
2023-11-30T15:26:16.160Z,18.43
2023-11-30T15:29:06.635Z,19.57
2023-11-30T15:31:57.689Z,13.30
2023-11-30T15:34:46.706Z,18.03
2023-11-30T15:37:36.432Z,18.03
2023-11-30T15:40:32.164Z,15.70
2023-11-30T15:43:26.145Z,23.90
2023-11-30T15:46:40.227Z,18.40
2023-11-30T15:49:29.420Z,18.33
2023-11-30T15:52:16.379Z,18.08
2023-11-30T15:55:12.115Z,19.27
2023-11-30T15:58:01.361Z,14.25
2023-11-30T16:00:55.937Z,11.88
2023-11-30T16:03:45.334Z,10.23
2023-11-30T16:06:37.896Z,8.40
2023-11-30T16:09:26.215Z,16.23
2023-11-30T16:12:13.821Z,26.45
2023-11-30T16:15:01.196Z,26.45
2023-11-30T16:18:04.858Z,19.58
2023-11-30T16:21:01.364Z,20.20
2023-11-30T16:23:55.206Z,14.90
2023-11-30T16:26:58.496Z,10.82
2023-11-30T16:30:45.841Z,12.63
2023-11-30T16:34:03.328Z,11.80
2023-11-30T16:37:07.365Z,15.68
2023-11-30T16:40:02.320Z,14.02
2023-11-30T16:43:01.552Z,11.50
2023-11-30T16:45:56.517Z,9.25
2023-11-30T16:48:49.894Z,7.47
2023-11-30T16:51:48.884Z,5.47
2023-11-30T16:54:55.094Z,6.20
2023-11-30T16:57:48.969Z,6.75
2023-11-30T17:00:51.441Z,9.40
2023-11-30T17:03:41.096Z,12.13
2023-11-30T17:06:32.282Z,10.90
2023-11-30T17:09:22.143Z,17.92
2023-11-30T17:12:12.570Z,12.40
2023-11-30T17:14:59.287Z,12.35
2023-11-30T17:17:50.620Z,14.50
2023-11-30T17:20:38.905Z,14.65
2023-11-30T17:23:28.006Z,13.02
2023-11-30T17:26:20.291Z,12.13
2023-11-30T17:29:14.889Z,10.35
2023-11-30T17:32:01.741Z,9.93
2023-11-30T17:35:22.615Z,12.65
2023-11-30T17:38:20.850Z,15.10
2023-11-30T17:41:11.664Z,15.98
2023-11-30T17:44:02.088Z,10.18
2023-11-30T17:46:56.223Z,13.27
2023-11-30T17:50:11.308Z,9.32
2023-11-30T17:52:58.527Z,14.85
2023-11-30T17:55:47.831Z,19.77
2023-11-30T17:58:39.147Z,15.20
2023-11-30T18:01:26.129Z,16.95
2023-11-30T18:04:14.251Z,15.68
2023-11-30T18:07:05.665Z,11.40
2023-11-30T18:09:58.846Z,16.80
2023-11-30T18:12:48.119Z,19.95
2023-11-30T18:15:38.016Z,52.03
2023-11-30T18:18:25.960Z,22.52
2023-11-30T18:21:14.288Z,17.40
2023-11-30T18:24:04.718Z,18.23
2023-11-30T18:26:56.328Z,12.10
2023-11-30T18:29:43.946Z,8.75
2023-11-30T18:32:33.286Z,8.23
2023-11-30T18:35:25.188Z,7.55
2023-11-30T18:38:15.822Z,9.10
2023-11-30T18:41:05.244Z,13.07
2023-11-30T18:43:52.140Z,10.82
2023-11-30T18:46:41.945Z,11.43
2023-11-30T18:49:31.199Z,9.32
2023-11-30T18:52:20.307Z,10.80
2023-11-30T18:55:10.016Z,11.45
2023-11-30T18:57:57.871Z,9.82
2023-11-30T19:00:45.816Z,10.00
2023-11-30T19:03:35.956Z,11.30
2023-11-30T19:06:28.702Z,12.13
2023-11-30T19:09:20.325Z,13.80
2023-11-30T19:12:12.703Z,7.93
2023-11-30T19:15:04.319Z,10.77
2023-11-30T19:17:53.532Z,13.50
2023-11-30T19:20:40.736Z,15.32
2023-11-30T19:23:30.163Z,14.90
2023-11-30T19:26:19.779Z,8.77
2023-11-30T19:29:08.256Z,8.38
2023-11-30T19:31:57.642Z,10.55
2023-11-30T19:34:46.869Z,5.07
2023-11-30T19:37:35.986Z,11.30
2023-11-30T19:40:30.036Z,11.10
2023-11-30T19:43:17.853Z,10.30
2023-11-30T19:46:11.708Z,13.18
2023-11-30T19:49:01.422Z,7.10
2023-11-30T19:51:51.019Z,9.15
2023-11-30T19:54:40.266Z,11.30
2023-11-30T19:57:31.558Z,5.45
2023-11-30T20:00:24.494Z,7.90
2023-11-30T20:03:15.979Z,10.43
2023-11-30T20:06:03.390Z,12.73
2023-11-30T20:08:52.961Z,10.15
2023-11-30T20:11:39.963Z,7.70
2023-11-30T20:14:28.418Z,8.18
2023-11-30T20:17:17.556Z,12.48
2023-11-30T20:20:07.376Z,13.07
2023-11-30T20:22:57.129Z,7.13
2023-11-30T20:25:45.004Z,7.25
2023-11-30T20:28:32.898Z,7.97
2023-11-30T20:31:24.621Z,8.68
2023-11-30T20:34:12.816Z,9.27
2023-11-30T20:37:06.622Z,9.90
2023-11-30T20:39:55.153Z,11.23
2023-11-30T20:42:42.909Z,10.57
2023-11-30T20:45:32.362Z,9.20
2023-11-30T20:48:23.606Z,11.73
2023-11-30T20:51:25.083Z,17.17
2023-11-30T20:54:16.400Z,11.25
2023-11-30T20:57:05.641Z,7.10
2023-11-30T20:59:56.749Z,8.07
2023-11-30T21:02:46.287Z,9.73
2023-11-30T21:05:37.080Z,8.07
2023-11-30T21:08:26.099Z,7.72
2023-11-30T21:11:21.273Z,12.68
2023-11-30T21:14:10.020Z,13.80
2023-11-30T21:16:56.976Z,15.90
2023-11-30T21:19:46.434Z,13.80
2023-11-30T21:22:37.732Z,21.90
2023-11-30T21:25:28.878Z,10.57
2023-11-30T21:28:24.700Z,24.17
2023-11-30T21:31:14.096Z,11.93
2023-11-30T21:34:01.158Z,12.05
2023-11-30T21:36:47.865Z,12.68
2023-11-30T21:39:38.023Z,18.08
2023-11-30T21:42:28.587Z,15.80
2023-11-30T21:45:24.696Z,12.50
2023-11-30T21:48:16.123Z,12.02
2023-11-30T21:51:03.313Z,15.68
2023-11-30T21:54:02.367Z,12.98
2023-11-30T21:56:54.513Z,15.65
2023-11-30T21:59:48.551Z,10.85
2023-11-30T22:02:48.585Z,14.13
2023-11-30T22:05:37.791Z,10.07
2023-11-30T22:08:33.586Z,10.05
2023-11-30T22:11:26.996Z,6.80
2023-11-30T22:14:17.161Z,7.63
2023-11-30T22:17:08.006Z,9.57
2023-11-30T22:20:01.692Z,9.60
2023-11-30T22:22:52.913Z,6.13
2023-11-30T22:25:53.309Z,7.25
2023-11-30T22:28:50.185Z,9.98
2023-11-30T22:31:39.606Z,11.25
2023-11-30T22:34:27.625Z,10.68
2023-11-30T22:37:22.998Z,8.20
2023-11-30T22:40:13.420Z,8.10
2023-11-30T22:43:00.043Z,7.72
2023-11-30T22:45:47.066Z,9.38
2023-11-30T22:48:38.901Z,9.98
2023-11-30T22:51:25.747Z,6.15
2023-11-30T22:54:16.397Z,6.43
2023-11-30T22:57:03.950Z,7.75
2023-11-30T22:59:52.992Z,9.02
2023-11-30T23:02:43.115Z,10.60
2023-11-30T23:05:32.906Z,6.35
2023-11-30T23:08:19.829Z,9.25
2023-11-30T23:11:19.481Z,13.32
2023-11-30T23:14:06.720Z,7.82
2023-11-30T23:16:56.593Z,10.13
2023-11-30T23:19:43.956Z,10.85
2023-11-30T23:22:33.265Z,6.50
2023-11-30T23:25:25.179Z,10.13
2023-11-30T23:28:15.319Z,10.43
2023-11-30T23:31:02.975Z,11.98
2023-11-30T23:33:52.366Z,16.63
2023-11-30T23:36:41.695Z,12.63
2023-11-30T23:39:31.293Z,9.55
2023-11-30T23:42:19.165Z,7.68
2023-11-30T23:45:11.985Z,9.18
2023-11-30T23:48:01.075Z,13.35
2023-11-30T23:50:50.694Z,14.73
2023-11-30T23:53:37.726Z,12.45
2023-11-30T23:56:24.674Z,9.65
2023-11-30T23:59:13.891Z,12.25
